sensor_id;sensor_type;location;lat;lon;timestamp;pressure;altitude;pressure_sealevel;temperature
65765;BMP180;52915;53.718;19.946;2023-03-31T00:04:42;99004.40;;;10.40
65765;BMP180;52915;53.718;19.946;2023-03-31T00:09:55;99002.40;;;10.32
65765;BMP180;52915;53.718;19.946;2023-03-31T00:15:12;99009.60;;;10.30
65765;BMP180;52915;53.718;19.946;2023-03-31T00:20:16;99018.00;;;10.30
65765;BMP180;52915;53.718;19.946;2023-03-31T00:25:20;99019.40;;;10.30
65765;BMP180;52915;53.718;19.946;2023-03-31T00:30:23;99017.20;;;10.28
65765;BMP180;52915;53.718;19.946;2023-03-31T00:35:27;99015.40;;;10.20
65765;BMP180;52915;53.718;19.946;2023-03-31T00:40:31;99021.20;;;10.20
65765;BMP180;52915;53.718;19.946;2023-03-31T00:45:35;99020.40;;;10.10
65765;BMP180;52915;53.718;19.946;2023-03-31T00:50:58;99018.60;;;10.06
65765;BMP180;52915;53.718;19.946;2023-03-31T00:56:12;99018.80;;;10.00
65765;BMP180;52915;53.718;19.946;2023-03-31T01:01:21;99020.20;;;10.00
65765;BMP180;52915;53.718;19.946;2023-03-31T01:06:29;99022.20;;;10.00
65765;BMP180;52915;53.718;19.946;2023-03-31T01:11:33;99022.80;;;10.00
65765;BMP180;52915;53.718;19.946;2023-03-31T01:16:37;99019.40;;;10.04
65765;BMP180;52915;53.718;19.946;2023-03-31T01:27:33;99012.20;;;10.00
65765;BMP180;52915;53.718;19.946;2023-03-31T01:44:37;99020.40;;;10.00
65765;BMP180;52915;53.718;19.946;2023-03-31T01:55:41;99024.40;;;9.96
65765;BMP180;52915;53.718;19.946;2023-03-31T02:01:12;99017.80;;;9.90
65765;BMP180;52915;53.718;19.946;2023-03-31T02:06:24;99013.00;;;9.90
65765;BMP180;52915;53.718;19.946;2023-03-31T02:11:32;99017.20;;;9.90
65765;BMP180;52915;53.718;19.946;2023-03-31T02:16:39;99017.00;;;9.90
65765;BMP180;52915;53.718;19.946;2023-03-31T02:21:50;99013.20;;;9.82
65765;BMP180;52915;53.718;19.946;2023-03-31T02:27:34;99008.20;;;9.82
65765;BMP180;52915;53.718;19.946;2023-03-31T02:32:44;99013.00;;;9.80
65765;BMP180;52915;53.718;19.946;2023-03-31T02:37:49;98999.40;;;9.80
65765;BMP180;52915;53.718;19.946;2023-03-31T02:42:53;99000.40;;;9.70
65765;BMP180;52915;53.718;19.946;2023-03-31T02:47:56;99000.40;;;9.70
65765;BMP180;52915;53.718;19.946;2023-03-31T02:59:09;99002.20;;;9.70
65765;BMP180;52915;53.718;19.946;2023-03-31T03:10:10;99005.00;;;9.60
65765;BMP180;52915;53.718;19.946;2023-03-31T03:15:25;99005.20;;;9.60
65765;BMP180;52915;53.718;19.946;2023-03-31T03:20:31;99002.60;;;9.60
65765;BMP180;52915;53.718;19.946;2023-03-31T03:25:38;99004.20;;;9.60
65765;BMP180;52915;53.718;19.946;2023-03-31T03:30:41;99006.80;;;9.60
65765;BMP180;52915;53.718;19.946;2023-03-31T03:35:45;99002.80;;;9.54
65765;BMP180;52915;53.718;19.946;2023-03-31T03:40:52;99009.00;;;9.50
65765;BMP180;52915;53.718;19.946;2023-03-31T03:45:56;99014.40;;;9.50
65765;BMP180;52915;53.718;19.946;2023-03-31T03:51:00;99012.40;;;9.50
65765;BMP180;52915;53.718;19.946;2023-03-31T03:56:04;99007.00;;;9.50
65765;BMP180;52915;53.718;19.946;2023-03-31T04:01:09;99007.40;;;9.50
65765;BMP180;52915;53.718;19.946;2023-03-31T04:06:13;98997.80;;;9.50
65765;BMP180;52915;53.718;19.946;2023-03-31T04:11:17;98996.00;;;9.46
65765;BMP180;52915;53.718;19.946;2023-03-31T04:16:21;98994.60;;;9.40
65765;BMP180;52915;53.718;19.946;2023-03-31T04:21:29;99000.00;;;9.40
65765;BMP180;52915;53.718;19.946;2023-03-31T04:26:37;98997.40;;;9.40
65765;BMP180;52915;53.718;19.946;2023-03-31T04:31:46;98993.60;;;9.40
65765;BMP180;52915;53.718;19.946;2023-03-31T04:36:50;98987.80;;;9.40
65765;BMP180;52915;53.718;19.946;2023-03-31T04:41:53;98982.40;;;9.32
65765;BMP180;52915;53.718;19.946;2023-03-31T04:46:58;98979.40;;;9.30
65765;BMP180;52915;53.718;19.946;2023-03-31T04:52:05;98973.80;;;9.30
65765;BMP180;52915;53.718;19.946;2023-03-31T04:57:10;98970.80;;;9.30
65765;BMP180;52915;53.718;19.946;2023-03-31T05:02:14;98961.20;;;9.30
65765;BMP180;52915;53.718;19.946;2023-03-31T05:07:27;98961.80;;;9.30
65765;BMP180;52915;53.718;19.946;2023-03-31T05:12:36;98963.20;;;9.30
65765;BMP180;52915;53.718;19.946;2023-03-31T05:17:40;98961.80;;;9.30
65765;BMP180;52915;53.718;19.946;2023-03-31T05:22:45;98960.00;;;9.30
65765;BMP180;52915;53.718;19.946;2023-03-31T05:27:49;98953.80;;;9.30
65765;BMP180;52915;53.718;19.946;2023-03-31T05:32:53;98947.60;;;9.40
65765;BMP180;52915;53.718;19.946;2023-03-31T05:37:57;98946.40;;;9.48
65765;BMP180;52915;53.718;19.946;2023-03-31T05:43:00;98944.80;;;9.50
65765;BMP180;52915;53.718;19.946;2023-03-31T05:48:05;98940.20;;;9.60
65765;BMP180;52915;53.718;19.946;2023-03-31T05:53:09;98938.20;;;9.64
65765;BMP180;52915;53.718;19.946;2023-03-31T05:58:13;98928.80;;;9.66
65765;BMP180;52915;53.718;19.946;2023-03-31T06:03:17;98932.20;;;9.70
65765;BMP180;52915;53.718;19.946;2023-03-31T06:08:20;98927.40;;;9.70
65765;BMP180;52915;53.718;19.946;2023-03-31T06:13:24;98924.00;;;9.70
65765;BMP180;52915;53.718;19.946;2023-03-31T06:18:30;98931.40;;;9.80
65765;BMP180;52915;53.718;19.946;2023-03-31T06:23:35;98941.00;;;9.80
65765;BMP180;52915;53.718;19.946;2023-03-31T06:28:39;98939.20;;;9.80
65765;BMP180;52915;53.718;19.946;2023-03-31T06:33:43;98936.40;;;9.80
65765;BMP180;52915;53.718;19.946;2023-03-31T06:38:49;98941.00;;;9.80
65765;BMP180;52915;53.718;19.946;2023-03-31T06:43:53;98941.20;;;9.88
65765;BMP180;52915;53.718;19.946;2023-03-31T06:48:57;98939.40;;;9.90
65765;BMP180;52915;53.718;19.946;2023-03-31T06:54:01;98940.60;;;10.00
65765;BMP180;52915;53.718;19.946;2023-03-31T06:59:04;98939.00;;;10.10
65765;BMP180;52915;53.718;19.946;2023-03-31T07:04:08;98942.00;;;10.10
65765;BMP180;52915;53.718;19.946;2023-03-31T07:09:12;98942.20;;;10.04
65765;BMP180;52915;53.718;19.946;2023-03-31T07:14:15;98942.80;;;10.02
65765;BMP180;52915;53.718;19.946;2023-03-31T07:19:22;98946.00;;;10.00
65765;BMP180;52915;53.718;19.946;2023-03-31T07:24:26;98942.40;;;10.02
65765;BMP180;52915;53.718;19.946;2023-03-31T07:29:30;98937.20;;;10.20
65765;BMP180;52915;53.718;19.946;2023-03-31T07:34:33;98942.00;;;10.22
65765;BMP180;52915;53.718;19.946;2023-03-31T07:39:40;98938.60;;;10.30
65765;BMP180;52915;53.718;19.946;2023-03-31T07:44:43;98935.00;;;10.30
65765;BMP180;52915;53.718;19.946;2023-03-31T07:49:47;98941.60;;;10.30
65765;BMP180;52915;53.718;19.946;2023-03-31T07:54:51;98923.40;;;10.40
65765;BMP180;52915;53.718;19.946;2023-03-31T07:59:55;98925.20;;;10.42
65765;BMP180;52915;53.718;19.946;2023-03-31T08:04:59;98911.00;;;10.60
65765;BMP180;52915;53.718;19.946;2023-03-31T08:10:06;98903.00;;;10.90
65765;BMP180;52915;53.718;19.946;2023-03-31T08:15:11;98900.40;;;11.20
65765;BMP180;52915;53.718;19.946;2023-03-31T08:20:15;98902.00;;;11.30
65765;BMP180;52915;53.718;19.946;2023-03-31T08:25:19;98892.60;;;11.40
65765;BMP180;52915;53.718;19.946;2023-03-31T08:30:23;98905.20;;;11.30
65765;BMP180;52915;53.718;19.946;2023-03-31T08:35:27;98894.40;;;11.10
65765;BMP180;52915;53.718;19.946;2023-03-31T08:40:32;98898.60;;;11.10
65765;BMP180;52915;53.718;19.946;2023-03-31T08:45:45;98891.60;;;11.12
65765;BMP180;52915;53.718;19.946;2023-03-31T08:56:21;98888.00;;;11.30
65765;BMP180;52915;53.718;19.946;2023-03-31T09:01:41;98889.00;;;11.20
65765;BMP180;52915;53.718;19.946;2023-03-31T09:07:27;98886.20;;;11.10
65765;BMP180;52915;53.718;19.946;2023-03-31T09:18:02;98878.40;;;11.00
65765;BMP180;52915;53.718;19.946;2023-03-31T09:28:35;98865.00;;;11.40
65765;BMP180;52915;53.718;19.946;2023-03-31T09:33:45;98868.20;;;11.50
65765;BMP180;52915;53.718;19.946;2023-03-31T09:38:50;98872.60;;;11.40
65765;BMP180;52915;53.718;19.946;2023-03-31T09:43:54;98868.40;;;11.40
65765;BMP180;52915;53.718;19.946;2023-03-31T09:49:14;98868.40;;;11.40
65765;BMP180;52915;53.718;19.946;2023-03-31T09:54:34;98862.80;;;11.30
65765;BMP180;52915;53.718;19.946;2023-03-31T09:59:39;98863.80;;;11.30
65765;BMP180;52915;53.718;19.946;2023-03-31T10:04:45;98860.40;;;11.40
65765;BMP180;52915;53.718;19.946;2023-03-31T10:09:50;98859.80;;;11.40
65765;BMP180;52915;53.718;19.946;2023-03-31T10:15:18;98857.60;;;11.50
65765;BMP180;52915;53.718;19.946;2023-03-31T10:20:36;98854.60;;;11.50
65765;BMP180;52915;53.718;19.946;2023-03-31T10:25:45;98858.60;;;11.40
65765;BMP180;52915;53.718;19.946;2023-03-31T10:30:57;98853.00;;;11.30
65765;BMP180;52915;53.718;19.946;2023-03-31T10:36:17;98853.00;;;11.30
65765;BMP180;52915;53.718;19.946;2023-03-31T10:41:29;98850.00;;;11.20
65765;BMP180;52915;53.718;19.946;2023-03-31T10:46:49;98851.00;;;11.22
65765;BMP180;52915;53.718;19.946;2023-03-31T10:51:58;98846.40;;;11.40
65765;BMP180;52915;53.718;19.946;2023-03-31T10:57:04;98841.80;;;11.50
65765;BMP180;52915;53.718;19.946;2023-03-31T11:25:22;98839.00;;;11.90
65765;BMP180;52915;53.718;19.946;2023-03-31T11:31:00;98830.20;;;12.14
65765;BMP180;52915;53.718;19.946;2023-03-31T11:42:13;98821.40;;;12.30
65765;BMP180;52915;53.718;19.946;2023-03-31T11:47:31;98819.80;;;12.68
65765;BMP180;52915;53.718;19.946;2023-03-31T11:53:13;98816.40;;;12.80
65765;BMP180;52915;53.718;19.946;2023-03-31T11:58:39;98803.80;;;13.10
65765;BMP180;52915;53.718;19.946;2023-03-31T12:10:19;98798.80;;;13.40
65765;BMP180;52915;53.718;19.946;2023-03-31T12:15:56;98792.60;;;13.20
65765;BMP180;52915;53.718;19.946;2023-03-31T12:21:06;98785.00;;;13.00
65765;BMP180;52915;53.718;19.946;2023-03-31T12:26:50;98782.40;;;12.90
65765;BMP180;52915;53.718;19.946;2023-03-31T12:32:09;98774.40;;;12.90
65765;BMP180;52915;53.718;19.946;2023-03-31T12:37:31;98770.60;;;13.10
65765;BMP180;52915;53.718;19.946;2023-03-31T13:04:37;98730.40;;;14.82
65765;BMP180;52915;53.718;19.946;2023-03-31T13:10:00;98718.00;;;15.54
65765;BMP180;52915;53.718;19.946;2023-03-31T13:15:27;98706.60;;;16.00
65765;BMP180;52915;53.718;19.946;2023-03-31T13:32:21;98679.40;;;16.82
65765;BMP180;52915;53.718;19.946;2023-03-31T13:43:12;98677.60;;;17.00
65765;BMP180;52915;53.718;19.946;2023-03-31T14:00:38;98662.20;;;17.16
65765;BMP180;52915;53.718;19.946;2023-03-31T14:33:29;98651.60;;;16.70
65765;BMP180;52915;53.718;19.946;2023-03-31T15:00:53;98613.40;;;16.60
65765;BMP180;52915;53.718;19.946;2023-03-31T15:06:48;98605.80;;;18.40
65765;BMP180;52915;53.718;19.946;2023-03-31T15:18:52;98627.00;;;16.74
65765;BMP180;52915;53.718;19.946;2023-03-31T15:24:13;98605.40;;;17.04
65765;BMP180;52915;53.718;19.946;2023-03-31T15:29:46;98610.00;;;18.14
65765;BMP180;52915;53.718;19.946;2023-03-31T15:35:31;98619.00;;;17.20
65765;BMP180;52915;53.718;19.946;2023-03-31T15:48:50;98624.80;;;16.60
65765;BMP180;52915;53.718;19.946;2023-03-31T16:15:05;98606.40;;;14.30
65765;BMP180;52915;53.718;19.946;2023-03-31T16:21:02;98602.40;;;14.02
65765;BMP180;52915;53.718;19.946;2023-03-31T16:26:07;98598.40;;;13.90
65765;BMP180;52915;53.718;19.946;2023-03-31T16:44:07;98579.60;;;13.40
65765;BMP180;52915;53.718;19.946;2023-03-31T16:49:11;98578.80;;;13.30
65765;BMP180;52915;53.718;19.946;2023-03-31T16:54:40;98583.20;;;13.14
65765;BMP180;52915;53.718;19.946;2023-03-31T16:59:44;98579.40;;;13.10
65765;BMP180;52915;53.718;19.946;2023-03-31T17:04:48;98574.60;;;12.98
65765;BMP180;52915;53.718;19.946;2023-03-31T17:10:20;98575.40;;;12.80
65765;BMP180;52915;53.718;19.946;2023-03-31T17:15:24;98567.40;;;12.80
65765;BMP180;52915;53.718;19.946;2023-03-31T17:27:48;98569.00;;;12.60
65765;BMP180;52915;53.718;19.946;2023-03-31T17:40:00;98561.40;;;12.50
65765;BMP180;52915;53.718;19.946;2023-03-31T17:59:38;98564.60;;;11.90
65765;BMP180;52915;53.718;19.946;2023-03-31T18:04:41;98562.40;;;11.90
65765;BMP180;52915;53.718;19.946;2023-03-31T18:09:45;98562.40;;;11.80
65765;BMP180;52915;53.718;19.946;2023-03-31T18:14:50;98566.20;;;11.90
65765;BMP180;52915;53.718;19.946;2023-03-31T18:19:54;98558.60;;;11.90
65765;BMP180;52915;53.718;19.946;2023-03-31T18:24:58;98559.80;;;11.70
65765;BMP180;52915;53.718;19.946;2023-03-31T18:30:03;98556.60;;;11.56
65765;BMP180;52915;53.718;19.946;2023-03-31T18:35:08;98551.60;;;11.40
65765;BMP180;52915;53.718;19.946;2023-03-31T18:40:12;98548.20;;;11.30
65765;BMP180;52915;53.718;19.946;2023-03-31T18:45:17;98549.80;;;11.30
65765;BMP180;52915;53.718;19.946;2023-03-31T18:50:47;98546.80;;;11.30
65765;BMP180;52915;53.718;19.946;2023-03-31T19:17:58;98561.20;;;10.50
65765;BMP180;52915;53.718;19.946;2023-03-31T19:37:57;98547.60;;;10.30
65765;BMP180;52915;53.718;19.946;2023-03-31T19:43:18;98536.80;;;10.30
65765;BMP180;52915;53.718;19.946;2023-03-31T20:02:16;98513.00;;;10.30
65765;BMP180;52915;53.718;19.946;2023-03-31T20:08:11;98499.80;;;10.20
65765;BMP180;52915;53.718;19.946;2023-03-31T20:13:41;98493.40;;;10.20
65765;BMP180;52915;53.718;19.946;2023-03-31T20:18:56;98494.60;;;10.12
65765;BMP180;52915;53.718;19.946;2023-03-31T20:24:01;98494.00;;;10.10
65765;BMP180;52915;53.718;19.946;2023-03-31T20:29:05;98495.80;;;10.10
65765;BMP180;52915;53.718;19.946;2023-03-31T20:34:15;98488.80;;;10.00
65765;BMP180;52915;53.718;19.946;2023-03-31T20:54:02;98480.00;;;9.80
65765;BMP180;52915;53.718;19.946;2023-03-31T21:09:38;98476.20;;;9.70
65765;BMP180;52915;53.718;19.946;2023-03-31T21:14:42;98473.80;;;9.70
65765;BMP180;52915;53.718;19.946;2023-03-31T21:19:46;98472.40;;;9.70
65765;BMP180;52915;53.718;19.946;2023-03-31T21:31:17;98462.40;;;9.56
65765;BMP180;52915;53.718;19.946;2023-03-31T21:36:22;98463.00;;;9.40
65765;BMP180;52915;53.718;19.946;2023-03-31T21:49:37;98472.20;;;9.50
65765;BMP180;52915;53.718;19.946;2023-03-31T21:55:16;98480.60;;;9.50
65765;BMP180;52915;53.718;19.946;2023-03-31T22:00:20;98476.40;;;9.46
65765;BMP180;52915;53.718;19.946;2023-03-31T22:05:25;98475.60;;;9.50
65765;BMP180;52915;53.718;19.946;2023-03-31T22:10:28;98478.80;;;9.50
65765;BMP180;52915;53.718;19.946;2023-03-31T22:15:41;98471.80;;;9.60
65765;BMP180;52915;53.718;19.946;2023-03-31T22:21:35;98473.80;;;9.70
65765;BMP180;52915;53.718;19.946;2023-03-31T22:33:29;98462.20;;;9.74
65765;BMP180;52915;53.718;19.946;2023-03-31T22:45:54;98455.20;;;9.62
65765;BMP180;52915;53.718;19.946;2023-03-31T22:51:24;98451.20;;;9.60
65765;BMP180;52915;53.718;19.946;2023-03-31T23:13:29;98442.80;;;9.70
65765;BMP180;52915;53.718;19.946;2023-03-31T23:18:34;98448.40;;;9.60
65765;BMP180;52915;53.718;19.946;2023-03-31T23:23:39;98443.00;;;9.60
65765;BMP180;52915;53.718;19.946;2023-03-31T23:28:47;98443.40;;;9.60
65765;BMP180;52915;53.718;19.946;2023-03-31T23:41:27;98429.40;;;9.80
65765;BMP180;52915;53.718;19.946;2023-03-31T23:46:32;98428.80;;;9.76
65765;BMP180;52915;53.718;19.946;2023-03-31T23:56:47;98423.40;;;9.70
